sensor_id;sensor_type;location;lat;lon;timestamp;P1;durP1;ratioP1;P2;durP2;ratioP2
68680;SDS011;55836;49.858;6.756;2022-10-13T00:01:19;25.73;;;12.33;;
68680;SDS011;55836;49.858;6.756;2022-10-13T00:03:46;29.27;;;13.33;;
68680;SDS011;55836;49.858;6.756;2022-10-13T00:06:12;24.77;;;11.87;;
68680;SDS011;55836;49.858;6.756;2022-10-13T00:08:39;21.83;;;12.53;;
68680;SDS011;55836;49.858;6.756;2022-10-13T00:11:12;25.83;;;12.93;;
68680;SDS011;55836;49.858;6.756;2022-10-13T00:13:38;19.50;;;11.70;;
68680;SDS011;55836;49.858;6.756;2022-10-13T00:16:04;20.63;;;11.93;;
68680;SDS011;55836;49.858;6.756;2022-10-13T00:18:31;22.37;;;12.63;;
68680;SDS011;55836;49.858;6.756;2022-10-13T00:20:57;25.33;;;12.93;;
68680;SDS011;55836;49.858;6.756;2022-10-13T00:23:23;25.77;;;13.77;;
68680;SDS011;55836;49.858;6.756;2022-10-13T00:25:49;30.90;;;13.47;;
68680;SDS011;55836;49.858;6.756;2022-10-13T00:28:17;27.90;;;14.00;;
68680;SDS011;55836;49.858;6.756;2022-10-13T00:30:43;32.20;;;13.37;;
68680;SDS011;55836;49.858;6.756;2022-10-13T00:33:09;31.80;;;14.33;;
68680;SDS011;55836;49.858;6.756;2022-10-13T00:35:43;28.93;;;13.27;;
68680;SDS011;55836;49.858;6.756;2022-10-13T00:38:09;30.03;;;14.23;;
68680;SDS011;55836;49.858;6.756;2022-10-13T00:40:53;27.83;;;13.93;;
68680;SDS011;55836;49.858;6.756;2022-10-13T00:45:47;23.17;;;13.23;;
68680;SDS011;55836;49.858;6.756;2022-10-13T00:48:20;30.43;;;14.73;;
68680;SDS011;55836;49.858;6.756;2022-10-13T00:50:46;28.17;;;15.10;;
68680;SDS011;55836;49.858;6.756;2022-10-13T00:53:13;26.70;;;13.37;;
68680;SDS011;55836;49.858;6.756;2022-10-13T00:55:40;24.93;;;12.13;;
68680;SDS011;55836;49.858;6.756;2022-10-13T00:58:07;29.83;;;13.27;;
68680;SDS011;55836;49.858;6.756;2022-10-13T01:00:34;27.63;;;14.53;;
68680;SDS011;55836;49.858;6.756;2022-10-13T01:03:01;36.20;;;13.50;;
68680;SDS011;55836;49.858;6.756;2022-10-13T01:05:27;25.20;;;14.27;;
68680;SDS011;55836;49.858;6.756;2022-10-13T01:07:53;31.67;;;13.50;;
68680;SDS011;55836;49.858;6.756;2022-10-13T01:10:54;31.87;;;13.57;;
68680;SDS011;55836;49.858;6.756;2022-10-13T01:13:14;29.33;;;13.27;;
68680;SDS011;55836;49.858;6.756;2022-10-13T01:18:23;24.17;;;12.20;;
68680;SDS011;55836;49.858;6.756;2022-10-13T01:21:00;24.47;;;12.67;;
68680;SDS011;55836;49.858;6.756;2022-10-13T01:31:31;28.43;;;13.43;;
68680;SDS011;55836;49.858;6.756;2022-10-13T01:37:02;25.37;;;12.60;;
68680;SDS011;55836;49.858;6.756;2022-10-13T01:39:35;25.67;;;13.93;;
68680;SDS011;55836;49.858;6.756;2022-10-13T01:42:47;22.33;;;12.40;;
68680;SDS011;55836;49.858;6.756;2022-10-13T01:44:52;37.20;;;14.87;;
68680;SDS011;55836;49.858;6.756;2022-10-13T01:47:20;26.33;;;13.17;;
68680;SDS011;55836;49.858;6.756;2022-10-13T01:49:46;24.50;;;12.40;;
68680;SDS011;55836;49.858;6.756;2022-10-13T01:52:15;20.60;;;12.67;;
68680;SDS011;55836;49.858;6.756;2022-10-13T01:54:46;26.63;;;13.20;;
68680;SDS011;55836;49.858;6.756;2022-10-13T01:57:25;25.73;;;13.07;;
68680;SDS011;55836;49.858;6.756;2022-10-13T01:59:52;25.27;;;12.00;;
68680;SDS011;55836;49.858;6.756;2022-10-13T02:02:20;26.50;;;12.50;;
68680;SDS011;55836;49.858;6.756;2022-10-13T02:07:19;20.17;;;11.90;;
68680;SDS011;55836;49.858;6.756;2022-10-13T02:15:06;27.10;;;13.73;;
68680;SDS011;55836;49.858;6.756;2022-10-13T02:17:34;23.73;;;14.20;;
68680;SDS011;55836;49.858;6.756;2022-10-13T02:20:00;25.50;;;13.40;;
68680;SDS011;55836;49.858;6.756;2022-10-13T02:22:31;34.33;;;13.63;;
68680;SDS011;55836;49.858;6.756;2022-10-13T02:24:58;26.93;;;13.17;;
68680;SDS011;55836;49.858;6.756;2022-10-13T02:27:24;24.23;;;12.47;;
68680;SDS011;55836;49.858;6.756;2022-10-13T02:29:57;29.43;;;13.80;;
68680;SDS011;55836;49.858;6.756;2022-10-13T02:32:23;30.70;;;12.37;;
68680;SDS011;55836;49.858;6.756;2022-10-13T02:34:49;16.20;;;11.30;;
68680;SDS011;55836;49.858;6.756;2022-10-13T02:37:15;19.70;;;12.57;;
68680;SDS011;55836;49.858;6.756;2022-10-13T02:39:41;19.37;;;12.10;;
68680;SDS011;55836;49.858;6.756;2022-10-13T02:42:07;18.63;;;11.47;;
68680;SDS011;55836;49.858;6.756;2022-10-13T02:44:34;18.43;;;10.70;;
68680;SDS011;55836;49.858;6.756;2022-10-13T02:47:00;16.17;;;9.33;;
68680;SDS011;55836;49.858;6.756;2022-10-13T02:49:26;17.33;;;9.57;;
68680;SDS011;55836;49.858;6.756;2022-10-13T02:51:52;22.40;;;9.73;;
68680;SDS011;55836;49.858;6.756;2022-10-13T02:54:18;15.13;;;9.77;;
68680;SDS011;55836;49.858;6.756;2022-10-13T02:56:44;13.80;;;9.33;;
68680;SDS011;55836;49.858;6.756;2022-10-13T02:59:10;14.33;;;9.10;;
68680;SDS011;55836;49.858;6.756;2022-10-13T03:01:36;14.17;;;9.40;;
68680;SDS011;55836;49.858;6.756;2022-10-13T03:04:05;14.03;;;9.30;;
68680;SDS011;55836;49.858;6.756;2022-10-13T03:06:32;15.53;;;9.30;;
68680;SDS011;55836;49.858;6.756;2022-10-13T03:08:58;13.67;;;9.37;;
68680;SDS011;55836;49.858;6.756;2022-10-13T03:11:24;11.33;;;8.67;;
68680;SDS011;55836;49.858;6.756;2022-10-13T03:13:50;17.77;;;10.80;;
68680;SDS011;55836;49.858;6.756;2022-10-13T03:16:16;15.57;;;10.03;;
68680;SDS011;55836;49.858;6.756;2022-10-13T03:18:42;14.27;;;9.70;;
68680;SDS011;55836;49.858;6.756;2022-10-13T03:21:08;14.73;;;9.87;;
68680;SDS011;55836;49.858;6.756;2022-10-13T03:23:35;13.50;;;10.40;;
68680;SDS011;55836;49.858;6.756;2022-10-13T03:26:01;15.43;;;10.53;;
68680;SDS011;55836;49.858;6.756;2022-10-13T03:28:28;17.67;;;12.07;;
68680;SDS011;55836;49.858;6.756;2022-10-13T03:31:04;16.77;;;9.90;;
68680;SDS011;55836;49.858;6.756;2022-10-13T03:33:30;15.87;;;11.07;;
68680;SDS011;55836;49.858;6.756;2022-10-13T03:36:00;16.70;;;10.77;;
68680;SDS011;55836;49.858;6.756;2022-10-13T03:38:27;13.00;;;9.60;;
68680;SDS011;55836;49.858;6.756;2022-10-13T03:40:53;16.97;;;10.07;;
68680;SDS011;55836;49.858;6.756;2022-10-13T03:43:20;16.30;;;10.27;;
68680;SDS011;55836;49.858;6.756;2022-10-13T03:45:55;15.73;;;9.67;;
68680;SDS011;55836;49.858;6.756;2022-10-13T03:48:21;15.40;;;9.90;;
68680;SDS011;55836;49.858;6.756;2022-10-13T03:50:47;18.27;;;10.43;;
68680;SDS011;55836;49.858;6.756;2022-10-13T03:53:13;18.33;;;11.70;;
68680;SDS011;55836;49.858;6.756;2022-10-13T03:55:39;17.03;;;11.07;;
68680;SDS011;55836;49.858;6.756;2022-10-13T03:58:05;19.23;;;11.90;;
68680;SDS011;55836;49.858;6.756;2022-10-13T04:00:33;20.00;;;12.23;;
68680;SDS011;55836;49.858;6.756;2022-10-13T04:02:59;20.03;;;12.17;;
68680;SDS011;55836;49.858;6.756;2022-10-13T04:05:25;23.53;;;12.63;;
68680;SDS011;55836;49.858;6.756;2022-10-13T04:07:51;23.93;;;11.90;;
68680;SDS011;55836;49.858;6.756;2022-10-13T04:10:17;24.77;;;12.47;;
68680;SDS011;55836;49.858;6.756;2022-10-13T04:12:43;22.23;;;12.03;;
68680;SDS011;55836;49.858;6.756;2022-10-13T04:15:09;19.87;;;11.50;;
68680;SDS011;55836;49.858;6.756;2022-10-13T04:17:35;16.10;;;11.40;;
68680;SDS011;55836;49.858;6.756;2022-10-13T04:20:01;19.83;;;11.90;;
68680;SDS011;55836;49.858;6.756;2022-10-13T04:22:27;16.97;;;10.63;;
68680;SDS011;55836;49.858;6.756;2022-10-13T04:24:53;19.17;;;11.23;;
68680;SDS011;55836;49.858;6.756;2022-10-13T04:27:19;20.43;;;10.93;;
68680;SDS011;55836;49.858;6.756;2022-10-13T04:29:47;14.73;;;10.30;;
68680;SDS011;55836;49.858;6.756;2022-10-13T04:32:13;16.90;;;10.07;;
68680;SDS011;55836;49.858;6.756;2022-10-13T04:34:39;15.20;;;10.77;;
68680;SDS011;55836;49.858;6.756;2022-10-13T04:37:05;14.53;;;10.63;;
68680;SDS011;55836;49.858;6.756;2022-10-13T04:39:31;16.63;;;11.10;;
68680;SDS011;55836;49.858;6.756;2022-10-13T04:41:57;16.37;;;10.77;;
68680;SDS011;55836;49.858;6.756;2022-10-13T04:44:23;12.13;;;9.33;;
68680;SDS011;55836;49.858;6.756;2022-10-13T04:46:49;15.07;;;10.07;;
68680;SDS011;55836;49.858;6.756;2022-10-13T04:49:15;15.07;;;10.00;;
68680;SDS011;55836;49.858;6.756;2022-10-13T04:51:41;14.73;;;10.10;;
68680;SDS011;55836;49.858;6.756;2022-10-13T04:54:08;15.40;;;10.07;;
68680;SDS011;55836;49.858;6.756;2022-10-13T04:56:34;17.67;;;10.47;;
68680;SDS011;55836;49.858;6.756;2022-10-13T04:59:00;21.40;;;10.93;;
68680;SDS011;55836;49.858;6.756;2022-10-13T05:01:29;17.23;;;10.57;;
68680;SDS011;55836;49.858;6.756;2022-10-13T05:03:56;19.77;;;11.83;;
68680;SDS011;55836;49.858;6.756;2022-10-13T05:06:24;17.87;;;11.13;;
68680;SDS011;55836;49.858;6.756;2022-10-13T05:08:50;18.30;;;11.17;;
68680;SDS011;55836;49.858;6.756;2022-10-13T05:11:16;17.10;;;11.37;;
68680;SDS011;55836;49.858;6.756;2022-10-13T05:13:43;15.57;;;11.63;;
68680;SDS011;55836;49.858;6.756;2022-10-13T05:16:10;14.93;;;10.57;;
68680;SDS011;55836;49.858;6.756;2022-10-13T05:18:37;17.03;;;10.70;;
68680;SDS011;55836;49.858;6.756;2022-10-13T05:21:22;16.30;;;10.97;;
68680;SDS011;55836;49.858;6.756;2022-10-13T05:23:49;15.53;;;10.37;;
68680;SDS011;55836;49.858;6.756;2022-10-13T05:26:25;14.20;;;9.87;;
68680;SDS011;55836;49.858;6.756;2022-10-13T05:28:53;16.23;;;10.23;;
68680;SDS011;55836;49.858;6.756;2022-10-13T05:31:20;15.30;;;10.37;;
68680;SDS011;55836;49.858;6.756;2022-10-13T05:33:47;17.23;;;9.43;;
68680;SDS011;55836;49.858;6.756;2022-10-13T05:36:17;14.80;;;10.37;;
68680;SDS011;55836;49.858;6.756;2022-10-13T05:38:44;13.80;;;9.27;;
68680;SDS011;55836;49.858;6.756;2022-10-13T05:41:11;13.63;;;9.10;;
68680;SDS011;55836;49.858;6.756;2022-10-13T05:43:37;15.80;;;9.07;;
68680;SDS011;55836;49.858;6.756;2022-10-13T05:46:04;11.60;;;8.53;;
68680;SDS011;55836;49.858;6.756;2022-10-13T05:48:30;13.17;;;9.07;;
68680;SDS011;55836;49.858;6.756;2022-10-13T05:50:56;12.63;;;8.20;;
68680;SDS011;55836;49.858;6.756;2022-10-13T05:53:24;11.20;;;8.80;;
68680;SDS011;55836;49.858;6.756;2022-10-13T05:55:51;12.50;;;8.87;;
68680;SDS011;55836;49.858;6.756;2022-10-13T05:58:19;10.57;;;8.17;;
68680;SDS011;55836;49.858;6.756;2022-10-13T06:00:45;15.37;;;8.33;;
68680;SDS011;55836;49.858;6.756;2022-10-13T06:03:12;9.87;;;7.67;;
68680;SDS011;55836;49.858;6.756;2022-10-13T06:05:39;11.27;;;8.50;;
68680;SDS011;55836;49.858;6.756;2022-10-13T06:08:07;12.10;;;8.77;;
68680;SDS011;55836;49.858;6.756;2022-10-13T06:10:33;15.17;;;10.57;;
68680;SDS011;55836;49.858;6.756;2022-10-13T06:13:01;15.53;;;10.67;;
68680;SDS011;55836;49.858;6.756;2022-10-13T06:15:27;14.70;;;9.50;;
68680;SDS011;55836;49.858;6.756;2022-10-13T06:17:53;14.13;;;10.20;;
68680;SDS011;55836;49.858;6.756;2022-10-13T06:20:19;14.07;;;9.70;;
68680;SDS011;55836;49.858;6.756;2022-10-13T06:22:45;13.20;;;10.07;;
68680;SDS011;55836;49.858;6.756;2022-10-13T06:25:14;16.47;;;11.07;;
68680;SDS011;55836;49.858;6.756;2022-10-13T06:27:40;19.60;;;11.00;;
68680;SDS011;55836;49.858;6.756;2022-10-13T06:30:06;14.53;;;10.63;;
68680;SDS011;55836;49.858;6.756;2022-10-13T06:32:32;14.97;;;10.57;;
68680;SDS011;55836;49.858;6.756;2022-10-13T06:34:59;15.73;;;10.40;;
68680;SDS011;55836;49.858;6.756;2022-10-13T06:37:25;14.40;;;9.70;;
68680;SDS011;55836;49.858;6.756;2022-10-13T06:39:51;16.77;;;10.63;;
68680;SDS011;55836;49.858;6.756;2022-10-13T06:42:17;18.80;;;11.87;;
68680;SDS011;55836;49.858;6.756;2022-10-13T06:44:43;15.70;;;10.53;;
68680;SDS011;55836;49.858;6.756;2022-10-13T06:47:09;13.93;;;9.53;;
68680;SDS011;55836;49.858;6.756;2022-10-13T06:49:35;14.17;;;9.93;;
68680;SDS011;55836;49.858;6.756;2022-10-13T06:52:02;17.07;;;11.00;;
68680;SDS011;55836;49.858;6.756;2022-10-13T06:54:28;14.77;;;10.37;;
68680;SDS011;55836;49.858;6.756;2022-10-13T06:56:54;13.37;;;10.37;;
68680;SDS011;55836;49.858;6.756;2022-10-13T06:59:20;15.00;;;10.70;;
68680;SDS011;55836;49.858;6.756;2022-10-13T07:01:47;18.03;;;10.83;;
68680;SDS011;55836;49.858;6.756;2022-10-13T07:04:13;14.73;;;11.30;;
68680;SDS011;55836;49.858;6.756;2022-10-13T07:06:39;12.73;;;10.43;;
68680;SDS011;55836;49.858;6.756;2022-10-13T07:09:06;12.60;;;9.00;;
68680;SDS011;55836;49.858;6.756;2022-10-13T07:11:33;17.20;;;11.27;;
68680;SDS011;55836;49.858;6.756;2022-10-13T07:13:59;13.03;;;9.40;;
68680;SDS011;55836;49.858;6.756;2022-10-13T07:16:26;14.97;;;9.83;;
68680;SDS011;55836;49.858;6.756;2022-10-13T07:18:52;14.97;;;10.63;;
68680;SDS011;55836;49.858;6.756;2022-10-13T07:21:18;11.40;;;10.20;;
68680;SDS011;55836;49.858;6.756;2022-10-13T07:23:44;10.13;;;9.03;;
68680;SDS011;55836;49.858;6.756;2022-10-13T07:26:11;12.37;;;9.57;;
68680;SDS011;55836;49.858;6.756;2022-10-13T07:28:38;11.77;;;8.90;;
68680;SDS011;55836;49.858;6.756;2022-10-13T07:31:05;11.60;;;9.17;;
68680;SDS011;55836;49.858;6.756;2022-10-13T07:33:32;12.07;;;9.43;;
68680;SDS011;55836;49.858;6.756;2022-10-13T07:35:58;10.87;;;8.37;;
68680;SDS011;55836;49.858;6.756;2022-10-13T07:38:24;12.07;;;9.00;;
68680;SDS011;55836;49.858;6.756;2022-10-13T07:40:50;11.30;;;8.83;;
68680;SDS011;55836;49.858;6.756;2022-10-13T07:43:16;10.87;;;8.90;;
68680;SDS011;55836;49.858;6.756;2022-10-13T07:45:42;9.70;;;8.00;;
68680;SDS011;55836;49.858;6.756;2022-10-13T07:48:08;14.07;;;9.27;;
68680;SDS011;55836;49.858;6.756;2022-10-13T07:50:35;11.23;;;9.03;;
68680;SDS011;55836;49.858;6.756;2022-10-13T07:53:01;11.03;;;9.67;;
68680;SDS011;55836;49.858;6.756;2022-10-13T07:55:27;10.17;;;8.70;;
68680;SDS011;55836;49.858;6.756;2022-10-13T07:57:53;13.50;;;9.63;;
68680;SDS011;55836;49.858;6.756;2022-10-13T08:00:19;15.20;;;9.40;;
68680;SDS011;55836;49.858;6.756;2022-10-13T08:02:47;10.43;;;9.07;;
68680;SDS011;55836;49.858;6.756;2022-10-13T08:05:14;12.10;;;8.80;;
68680;SDS011;55836;49.858;6.756;2022-10-13T08:07:40;11.10;;;9.47;;
68680;SDS011;55836;49.858;6.756;2022-10-13T08:10:06;14.10;;;9.60;;
68680;SDS011;55836;49.858;6.756;2022-10-13T08:12:36;15.17;;;9.73;;
68680;SDS011;55836;49.858;6.756;2022-10-13T08:15:03;12.57;;;10.30;;
68680;SDS011;55836;49.858;6.756;2022-10-13T08:17:29;10.23;;;9.07;;
68680;SDS011;55836;49.858;6.756;2022-10-13T08:19:55;10.77;;;8.70;;
68680;SDS011;55836;49.858;6.756;2022-10-13T08:22:22;14.47;;;9.67;;
68680;SDS011;55836;49.858;6.756;2022-10-13T08:24:48;18.33;;;11.57;;
68680;SDS011;55836;49.858;6.756;2022-10-13T08:27:16;13.70;;;10.03;;
68680;SDS011;55836;49.858;6.756;2022-10-13T08:29:44;14.17;;;10.30;;
68680;SDS011;55836;49.858;6.756;2022-10-13T08:32:10;13.27;;;10.07;;
68680;SDS011;55836;49.858;6.756;2022-10-13T08:34:36;14.43;;;10.77;;
68680;SDS011;55836;49.858;6.756;2022-10-13T08:37:02;11.50;;;10.23;;
68680;SDS011;55836;49.858;6.756;2022-10-13T08:39:28;15.37;;;11.13;;
68680;SDS011;55836;49.858;6.756;2022-10-13T08:41:54;11.80;;;9.73;;
68680;SDS011;55836;49.858;6.756;2022-10-13T08:47:02;13.77;;;10.97;;
68680;SDS011;55836;49.858;6.756;2022-10-13T08:49:30;15.50;;;10.93;;
68680;SDS011;55836;49.858;6.756;2022-10-13T08:51:56;14.97;;;10.40;;
68680;SDS011;55836;49.858;6.756;2022-10-13T08:54:23;14.77;;;11.23;;
68680;SDS011;55836;49.858;6.756;2022-10-13T08:56:50;13.20;;;10.20;;
68680;SDS011;55836;49.858;6.756;2022-10-13T08:59:16;15.67;;;11.37;;
68680;SDS011;55836;49.858;6.756;2022-10-13T09:01:43;14.67;;;11.20;;
68680;SDS011;55836;49.858;6.756;2022-10-13T09:06:48;13.73;;;10.67;;
68680;SDS011;55836;49.858;6.756;2022-10-13T09:09:16;16.47;;;11.33;;
68680;SDS011;55836;49.858;6.756;2022-10-13T09:11:43;14.40;;;10.97;;
68680;SDS011;55836;49.858;6.756;2022-10-13T09:14:10;12.73;;;10.53;;
68680;SDS011;55836;49.858;6.756;2022-10-13T09:16:45;12.23;;;10.23;;
68680;SDS011;55836;49.858;6.756;2022-10-13T09:21:55;13.73;;;9.90;;
68680;SDS011;55836;49.858;6.756;2022-10-13T09:24:22;13.03;;;9.60;;
68680;SDS011;55836;49.858;6.756;2022-10-13T09:26:49;12.80;;;11.33;;
68680;SDS011;55836;49.858;6.756;2022-10-13T09:29:18;13.87;;;11.17;;
68680;SDS011;55836;49.858;6.756;2022-10-13T09:31:44;14.17;;;10.73;;
68680;SDS011;55836;49.858;6.756;2022-10-13T09:36:53;14.60;;;10.90;;
68680;SDS011;55836;49.858;6.756;2022-10-13T09:39:19;11.87;;;9.77;;
68680;SDS011;55836;49.858;6.756;2022-10-13T09:41:46;16.13;;;11.37;;
68680;SDS011;55836;49.858;6.756;2022-10-13T09:44:13;15.40;;;11.30;;
68680;SDS011;55836;49.858;6.756;2022-10-13T09:46:45;14.43;;;10.80;;
68680;SDS011;55836;49.858;6.756;2022-10-13T09:49:45;15.40;;;11.50;;
68680;SDS011;55836;49.858;6.756;2022-10-13T10:00:24;18.30;;;11.67;;
68680;SDS011;55836;49.858;6.756;2022-10-13T10:02:37;15.30;;;10.87;;
68680;SDS011;55836;49.858;6.756;2022-10-13T10:05:06;18.73;;;11.93;;
68680;SDS011;55836;49.858;6.756;2022-10-13T10:07:39;14.40;;;11.50;;
68680;SDS011;55836;49.858;6.756;2022-10-13T10:10:05;17.73;;;12.07;;
68680;SDS011;55836;49.858;6.756;2022-10-13T10:12:37;17.57;;;12.10;;
68680;SDS011;55836;49.858;6.756;2022-10-13T10:15:14;17.20;;;12.57;;
68680;SDS011;55836;49.858;6.756;2022-10-13T10:17:45;17.20;;;11.80;;
68680;SDS011;55836;49.858;6.756;2022-10-13T10:22:48;18.57;;;14.20;;
68680;SDS011;55836;49.858;6.756;2022-10-13T10:30:28;21.50;;;14.13;;
68680;SDS011;55836;49.858;6.756;2022-10-13T10:33:02;21.20;;;14.63;;
68680;SDS011;55836;49.858;6.756;2022-10-13T10:43:25;18.37;;;14.87;;
68680;SDS011;55836;49.858;6.756;2022-10-13T10:45:55;20.53;;;14.13;;
68680;SDS011;55836;49.858;6.756;2022-10-13T10:48:23;20.03;;;15.20;;
68680;SDS011;55836;49.858;6.756;2022-10-13T10:50:50;23.80;;;16.63;;
68680;SDS011;55836;49.858;6.756;2022-10-13T10:55:53;19.07;;;14.13;;
68680;SDS011;55836;49.858;6.756;2022-10-13T10:58:26;22.80;;;14.77;;
68680;SDS011;55836;49.858;6.756;2022-10-13T11:06:02;24.40;;;15.23;;
68680;SDS011;55836;49.858;6.756;2022-10-13T11:08:41;19.43;;;14.13;;
68680;SDS011;55836;49.858;6.756;2022-10-13T11:16:24;21.97;;;14.73;;
68680;SDS011;55836;49.858;6.756;2022-10-13T11:19:02;20.00;;;14.97;;
68680;SDS011;55836;49.858;6.756;2022-10-13T11:37:29;21.47;;;14.77;;
68680;SDS011;55836;49.858;6.756;2022-10-13T11:40:02;20.77;;;15.63;;
68680;SDS011;55836;49.858;6.756;2022-10-13T11:45:25;22.83;;;15.37;;
68680;SDS011;55836;49.858;6.756;2022-10-13T11:47:56;19.90;;;14.53;;
68680;SDS011;55836;49.858;6.756;2022-10-13T11:53:39;20.40;;;14.63;;
68680;SDS011;55836;49.858;6.756;2022-10-13T11:56:17;24.83;;;15.60;;
68680;SDS011;55836;49.858;6.756;2022-10-13T11:58:43;26.17;;;15.77;;
68680;SDS011;55836;49.858;6.756;2022-10-13T12:01:13;25.27;;;15.60;;
68680;SDS011;55836;49.858;6.756;2022-10-13T12:03:41;25.10;;;16.60;;
68680;SDS011;55836;49.858;6.756;2022-10-13T12:08:57;21.70;;;15.40;;
68680;SDS011;55836;49.858;6.756;2022-10-13T12:11:26;23.87;;;16.20;;
68680;SDS011;55836;49.858;6.756;2022-10-13T12:13:52;23.00;;;16.23;;
68680;SDS011;55836;49.858;6.756;2022-10-13T12:16:18;22.17;;;14.77;;
68680;SDS011;55836;49.858;6.756;2022-10-13T12:18:45;22.67;;;16.43;;
68680;SDS011;55836;49.858;6.756;2022-10-13T12:21:16;29.33;;;16.10;;
68680;SDS011;55836;49.858;6.756;2022-10-13T12:23:44;23.37;;;16.03;;
68680;SDS011;55836;49.858;6.756;2022-10-13T12:26:13;23.33;;;14.90;;
68680;SDS011;55836;49.858;6.756;2022-10-13T12:31:15;21.97;;;14.37;;
68680;SDS011;55836;49.858;6.756;2022-10-13T12:33:42;20.23;;;14.67;;
68680;SDS011;55836;49.858;6.756;2022-10-13T12:36:12;22.20;;;13.87;;
68680;SDS011;55836;49.858;6.756;2022-10-13T12:38:41;23.50;;;13.60;;
68680;SDS011;55836;49.858;6.756;2022-10-13T12:41:07;18.87;;;13.90;;
68680;SDS011;55836;49.858;6.756;2022-10-13T12:43:34;22.87;;;13.97;;
68680;SDS011;55836;49.858;6.756;2022-10-13T12:46:03;19.50;;;13.93;;
68680;SDS011;55836;49.858;6.756;2022-10-13T12:48:34;23.80;;;14.00;;
68680;SDS011;55836;49.858;6.756;2022-10-13T12:51:08;16.20;;;13.17;;
68680;SDS011;55836;49.858;6.756;2022-10-13T12:53:35;26.53;;;14.13;;
68680;SDS011;55836;49.858;6.756;2022-10-13T12:56:16;20.47;;;13.00;;
68680;SDS011;55836;49.858;6.756;2022-10-13T12:58:43;16.20;;;12.70;;
68680;SDS011;55836;49.858;6.756;2022-10-13T13:03:38;20.20;;;13.87;;
68680;SDS011;55836;49.858;6.756;2022-10-13T13:06:27;22.50;;;13.93;;
68680;SDS011;55836;49.858;6.756;2022-10-13T13:09:36;20.70;;;14.77;;
68680;SDS011;55836;49.858;6.756;2022-10-13T13:11:37;20.93;;;13.53;;
68680;SDS011;55836;49.858;6.756;2022-10-13T13:19:49;21.73;;;12.63;;
68680;SDS011;55836;49.858;6.756;2022-10-13T13:22:15;19.00;;;12.23;;
68680;SDS011;55836;49.858;6.756;2022-10-13T13:24:42;18.47;;;11.63;;
68680;SDS011;55836;49.858;6.756;2022-10-13T13:27:15;22.47;;;14.80;;
68680;SDS011;55836;49.858;6.756;2022-10-13T13:29:42;17.73;;;12.30;;
68680;SDS011;55836;49.858;6.756;2022-10-13T13:32:12;22.87;;;12.97;;
68680;SDS011;55836;49.858;6.756;2022-10-13T13:34:38;25.03;;;12.93;;
68680;SDS011;55836;49.858;6.756;2022-10-13T13:37:04;17.07;;;11.50;;
68680;SDS011;55836;49.858;6.756;2022-10-13T13:39:30;21.47;;;12.20;;
68680;SDS011;55836;49.858;6.756;2022-10-13T13:41:56;15.57;;;11.63;;
68680;SDS011;55836;49.858;6.756;2022-10-13T13:44:22;20.70;;;11.57;;
68680;SDS011;55836;49.858;6.756;2022-10-13T13:46:48;17.83;;;12.23;;
68680;SDS011;55836;49.858;6.756;2022-10-13T13:49:14;17.17;;;11.40;;
68680;SDS011;55836;49.858;6.756;2022-10-13T13:51:40;17.13;;;11.07;;
68680;SDS011;55836;49.858;6.756;2022-10-13T13:54:06;20.40;;;13.93;;
68680;SDS011;55836;49.858;6.756;2022-10-13T13:56:32;23.47;;;14.50;;
68680;SDS011;55836;49.858;6.756;2022-10-13T13:58:58;26.57;;;13.90;;
68680;SDS011;55836;49.858;6.756;2022-10-13T14:01:24;24.50;;;15.03;;
68680;SDS011;55836;49.858;6.756;2022-10-13T14:03:50;19.43;;;13.83;;
68680;SDS011;55836;49.858;6.756;2022-10-13T14:06:17;25.60;;;14.87;;
68680;SDS011;55836;49.858;6.756;2022-10-13T14:08:43;20.03;;;14.93;;
68680;SDS011;55836;49.858;6.756;2022-10-13T14:11:09;24.57;;;14.47;;
68680;SDS011;55836;49.858;6.756;2022-10-13T14:13:35;24.43;;;14.00;;
68680;SDS011;55836;49.858;6.756;2022-10-13T14:16:02;25.73;;;15.30;;
68680;SDS011;55836;49.858;6.756;2022-10-13T14:18:29;18.87;;;12.73;;
68680;SDS011;55836;49.858;6.756;2022-10-13T14:20:55;19.90;;;12.93;;
68680;SDS011;55836;49.858;6.756;2022-10-13T14:23:21;18.17;;;13.33;;
68680;SDS011;55836;49.858;6.756;2022-10-13T14:25:47;21.93;;;14.43;;
68680;SDS011;55836;49.858;6.756;2022-10-13T14:28:13;22.57;;;13.17;;
68680;SDS011;55836;49.858;6.756;2022-10-13T14:30:39;19.77;;;13.60;;
68680;SDS011;55836;49.858;6.756;2022-10-13T14:33:07;22.93;;;14.57;;
68680;SDS011;55836;49.858;6.756;2022-10-13T14:35:33;21.83;;;14.47;;
68680;SDS011;55836;49.858;6.756;2022-10-13T14:37:59;22.87;;;14.57;;
68680;SDS011;55836;49.858;6.756;2022-10-13T14:40:25;26.43;;;14.90;;
68680;SDS011;55836;49.858;6.756;2022-10-13T14:42:52;19.93;;;14.00;;
68680;SDS011;55836;49.858;6.756;2022-10-13T14:45:18;23.00;;;13.77;;
68680;SDS011;55836;49.858;6.756;2022-10-13T14:47:44;24.60;;;16.03;;
68680;SDS011;55836;49.858;6.756;2022-10-13T14:50:10;23.83;;;15.77;;
68680;SDS011;55836;49.858;6.756;2022-10-13T14:52:36;26.77;;;15.63;;
68680;SDS011;55836;49.858;6.756;2022-10-13T14:55:02;22.37;;;14.30;;
68680;SDS011;55836;49.858;6.756;2022-10-13T14:57:28;23.67;;;16.20;;
68680;SDS011;55836;49.858;6.756;2022-10-13T14:59:54;22.80;;;15.73;;
68680;SDS011;55836;49.858;6.756;2022-10-13T15:02:20;20.77;;;14.67;;
68680;SDS011;55836;49.858;6.756;2022-10-13T15:04:46;21.07;;;15.20;;
68680;SDS011;55836;49.858;6.756;2022-10-13T15:07:12;23.00;;;15.63;;
68680;SDS011;55836;49.858;6.756;2022-10-13T15:09:38;19.30;;;15.07;;
68680;SDS011;55836;49.858;6.756;2022-10-13T15:12:04;27.90;;;16.30;;
68680;SDS011;55836;49.858;6.756;2022-10-13T15:14:30;21.20;;;15.63;;
68680;SDS011;55836;49.858;6.756;2022-10-13T15:16:56;26.27;;;15.93;;
68680;SDS011;55836;49.858;6.756;2022-10-13T15:19:22;24.27;;;15.27;;
68680;SDS011;55836;49.858;6.756;2022-10-13T15:21:48;23.73;;;14.67;;
68680;SDS011;55836;49.858;6.756;2022-10-13T15:24:15;22.43;;;15.47;;
68680;SDS011;55836;49.858;6.756;2022-10-13T15:26:41;22.20;;;15.70;;
68680;SDS011;55836;49.858;6.756;2022-10-13T15:29:07;21.77;;;15.13;;
68680;SDS011;55836;49.858;6.756;2022-10-13T15:31:33;22.87;;;15.97;;
68680;SDS011;55836;49.858;6.756;2022-10-13T15:33:59;22.77;;;15.20;;
68680;SDS011;55836;49.858;6.756;2022-10-13T15:36:26;22.87;;;15.83;;
68680;SDS011;55836;49.858;6.756;2022-10-13T15:38:52;21.83;;;15.17;;
68680;SDS011;55836;49.858;6.756;2022-10-13T15:41:18;19.67;;;15.03;;
68680;SDS011;55836;49.858;6.756;2022-10-13T15:43:46;21.87;;;15.93;;
68680;SDS011;55836;49.858;6.756;2022-10-13T15:46:13;24.80;;;17.10;;
68680;SDS011;55836;49.858;6.756;2022-10-13T15:48:46;24.27;;;16.20;;
68680;SDS011;55836;49.858;6.756;2022-10-13T15:51:16;23.77;;;16.00;;
68680;SDS011;55836;49.858;6.756;2022-10-13T15:53:43;24.33;;;15.70;;
68680;SDS011;55836;49.858;6.756;2022-10-13T15:56:09;23.17;;;17.13;;
68680;SDS011;55836;49.858;6.756;2022-10-13T15:58:35;25.77;;;16.03;;
68680;SDS011;55836;49.858;6.756;2022-10-13T16:01:08;25.33;;;16.90;;
68680;SDS011;55836;49.858;6.756;2022-10-13T16:03:34;21.10;;;15.70;;
68680;SDS011;55836;49.858;6.756;2022-10-13T16:06:02;24.63;;;17.00;;
68680;SDS011;55836;49.858;6.756;2022-10-13T16:08:28;26.10;;;17.97;;
68680;SDS011;55836;49.858;6.756;2022-10-13T16:10:54;27.80;;;19.00;;
68680;SDS011;55836;49.858;6.756;2022-10-13T16:13:20;25.80;;;19.33;;